createdAt,value
2018-09-11T00:01:53.631Z,101936.75
2018-09-11T00:04:21.638Z,101940.70
2018-09-11T00:06:49.743Z,101935.00
2018-09-11T00:09:17.432Z,101933.27
2018-09-11T00:11:45.077Z,101932.84
2018-09-11T00:14:13.065Z,101938.11
2018-09-11T00:16:41.283Z,101940.75
2018-09-11T00:19:09.152Z,101933.31
2018-09-11T00:21:36.853Z,101935.06
2018-09-11T00:24:04.483Z,101938.19
2018-09-11T00:26:32.820Z,101935.97
2018-09-11T00:29:00.444Z,101933.83
2018-09-11T00:31:28.377Z,101933.36
2018-09-11T00:33:56.041Z,101920.18
2018-09-11T00:36:23.670Z,101923.72
2018-09-11T00:38:51.363Z,101923.30
2018-09-11T00:41:19.600Z,101922.86
2018-09-11T00:43:47.252Z,101917.59
2018-09-11T00:46:15.201Z,101921.54
2018-09-11T00:48:43.145Z,101917.16
2018-09-11T00:51:11.138Z,101910.59
2018-09-11T00:53:39.095Z,101900.05
2018-09-11T00:56:06.766Z,101899.20
2018-09-11T00:58:34.461Z,101893.48
2018-09-11T01:01:02.472Z,101898.33
2018-09-11T01:03:30.149Z,101898.33
2018-09-11T01:05:57.854Z,101893.96
2018-09-11T01:08:25.511Z,101903.59
2018-09-11T01:10:53.441Z,101911.06
2018-09-11T01:13:21.392Z,101918.49
2018-09-11T01:15:49.425Z,101914.56
2018-09-11T01:18:17.118Z,101918.06
2018-09-11T01:20:44.858Z,101913.72
2018-09-11T01:23:12.978Z,101915.01
2018-09-11T01:25:41.222Z,101915.01
2018-09-11T01:28:08.904Z,101911.49
2018-09-11T01:30:37.092Z,101909.77
2018-09-11T01:33:04.792Z,101908.45
2018-09-11T01:35:32.708Z,101906.25
2018-09-11T01:38:00.358Z,101912.42
2018-09-11T01:40:28.000Z,101914.17
2018-09-11T01:42:55.681Z,101908.47
2018-09-11T01:45:23.356Z,101915.48
2018-09-11T01:47:51.042Z,101907.19
2018-09-11T01:50:18.798Z,101919.92
2018-09-11T01:52:46.769Z,101922.09
2018-09-11T01:55:14.408Z,101922.56
2018-09-11T01:57:42.091Z,101920.36
2018-09-11T02:00:15.737Z,101920.38
2018-09-11T02:02:44.280Z,101919.53
2018-09-11T02:05:11.968Z,101911.63
2018-09-11T02:07:40.496Z,101917.33
2018-09-11T02:10:08.148Z,101912.06
2018-09-11T02:12:36.336Z,101913.38
2018-09-11T02:15:04.685Z,101911.63
2018-09-11T02:17:32.702Z,101908.14
2018-09-11T02:20:00.393Z,101916.91
2018-09-11T02:22:28.483Z,101919.55
2018-09-11T02:24:56.489Z,101913.41
2018-09-11T02:27:24.457Z,101909.02
2018-09-11T02:29:52.392Z,101908.14
2018-09-11T02:32:20.353Z,101912.09
2018-09-11T02:34:48.223Z,101916.91
2018-09-11T02:37:16.273Z,101907.27
2018-09-11T02:39:44.178Z,101906.80
2018-09-11T02:42:12.204Z,101900.23
2018-09-11T02:44:39.827Z,101891.92
2018-09-11T02:47:07.982Z,101887.06
2018-09-11T02:49:35.652Z,101880.09
2018-09-11T02:52:03.434Z,101872.19
2018-09-11T02:54:31.369Z,101867.39
2018-09-11T02:56:59.236Z,101862.97
2018-09-11T02:59:26.940Z,101859.05
2018-09-11T03:01:54.826Z,101869.14
2018-09-11T03:04:23.541Z,101862.99
2018-09-11T03:06:51.505Z,101856.87
2018-09-11T03:09:19.423Z,101852.45
2018-09-11T03:11:47.102Z,101843.22
2018-09-11T03:14:14.746Z,101837.52
2018-09-11T03:16:42.736Z,101841.91
2018-09-11T03:19:10.662Z,101841.49
2018-09-11T03:21:38.931Z,101838.45
2018-09-11T03:24:06.548Z,101841.98
2018-09-11T03:26:34.788Z,101842.39
2018-09-11T03:29:02.512Z,101831.88
2018-09-11T03:31:30.265Z,101830.59
2018-09-11T03:33:58.561Z,101820.03
2018-09-11T03:36:26.352Z,101821.78
2018-09-11T03:38:55.746Z,101813.03
2018-09-11T03:41:23.484Z,101808.64
2018-09-11T03:43:52.225Z,101804.28
2018-09-11T03:46:20.770Z,101810.45
2018-09-11T03:48:48.784Z,101809.56
2018-09-11T03:51:16.552Z,101810.02
2018-09-11T03:53:44.261Z,101804.75
2018-09-11T03:56:12.045Z,101807.38
2018-09-11T03:58:40.329Z,101802.96
2018-09-11T04:01:08.233Z,101792.41
2018-09-11T04:03:36.321Z,101787.55
2018-09-11T04:06:04.114Z,101784.48
2018-09-11T04:08:32.039Z,101789.77
2018-09-11T04:11:00.683Z,101788.89
2018-09-11T04:13:28.311Z,101782.31
2018-09-11T04:15:56.219Z,101775.31
2018-09-11T04:18:24.448Z,101774.47
2018-09-11T04:20:52.216Z,101775.31
2018-09-11T04:23:19.969Z,101777.09
2018-09-11T04:25:48.180Z,101764.80
2018-09-11T04:28:15.990Z,101764.37
2018-09-11T04:30:43.763Z,101771.84
2018-09-11T04:33:11.655Z,101784.12
2018-09-11T04:35:40.456Z,101787.19
2018-09-11T04:38:08.409Z,101780.60
2018-09-11T04:40:36.573Z,101789.82
2018-09-11T04:43:04.356Z,101788.50
2018-09-11T04:45:32.613Z,101783.23
2018-09-11T04:48:00.295Z,101778.84
2018-09-11T04:50:27.917Z,101779.73
2018-09-11T04:52:55.567Z,101775.80
2018-09-11T04:55:23.569Z,101773.61
2018-09-11T04:57:51.902Z,101771.47
2018-09-11T05:00:20.171Z,101765.73
2018-09-11T05:02:48.025Z,101760.08
2018-09-11T05:05:15.724Z,101753.06
2018-09-11T05:07:43.423Z,101746.01
2018-09-11T05:10:11.313Z,101735.53
2018-09-11T05:12:39.261Z,101745.59
2018-09-11T05:15:07.122Z,101743.82
2018-09-11T05:17:34.854Z,101739.84
2018-09-11T05:20:02.698Z,101745.06
2018-09-11T05:22:30.525Z,101745.03
2018-09-11T05:24:58.342Z,101741.98
2018-09-11T05:27:26.379Z,101734.09
2018-09-11T05:29:54.623Z,101721.80
2018-09-11T05:32:22.461Z,101719.17
2018-09-11T05:34:50.661Z,101732.28
2018-09-11T05:37:18.398Z,101719.12
2018-09-11T05:39:46.174Z,101727.48
2018-09-11T05:42:13.991Z,101727.48
2018-09-11T05:44:41.849Z,101727.48
2018-09-11T05:47:09.757Z,101714.75
2018-09-11T05:49:39.125Z,101719.58
2018-09-11T05:52:06.892Z,101725.67
2018-09-11T05:54:34.796Z,101736.20
2018-09-11T05:57:02.622Z,101732.25
2018-09-11T05:59:30.341Z,101735.28
2018-09-11T06:01:58.326Z,101724.31
2018-09-11T06:04:27.423Z,101726.53
2018-09-11T06:06:55.700Z,101743.23
2018-09-11T06:09:23.587Z,101736.66
2018-09-11T06:11:51.510Z,101733.58
2018-09-11T06:14:19.432Z,101726.98
2018-09-11T06:16:48.034Z,101716.92
2018-09-11T06:19:15.649Z,101719.95
2018-09-11T06:21:43.919Z,101716.84
2018-09-11T06:24:11.905Z,101709.88
2018-09-11T06:26:39.797Z,101710.78
2018-09-11T06:29:07.617Z,101711.22
2018-09-11T06:31:35.468Z,101723.97
2018-09-11T06:34:03.405Z,101714.73
2018-09-11T06:36:31.190Z,101717.80
2018-09-11T06:38:58.917Z,101688.40
2018-09-11T06:41:26.597Z,101688.38
2018-09-11T06:43:54.210Z,101676.50
2018-09-11T06:46:21.896Z,101688.78
2018-09-11T06:48:49.553Z,101724.80
2018-09-11T06:51:17.269Z,101712.95
2018-09-11T06:53:45.000Z,101707.23
2018-09-11T06:56:13.207Z,101716.02
2018-09-11T06:58:40.837Z,101720.85
2018-09-11T07:01:08.725Z,101718.22
2018-09-11T07:03:36.424Z,101715.12
2018-09-11T07:06:04.332Z,101696.25
2018-09-11T07:08:32.071Z,101681.30
2018-09-11T07:10:59.737Z,101679.02
2018-09-11T07:13:27.693Z,101682.92
2018-09-11T07:15:55.625Z,101682.84
2018-09-11T07:18:23.882Z,101688.11
2018-09-11T07:20:52.227Z,101684.63
2018-09-11T07:23:20.076Z,101676.77
2018-09-11T07:25:47.752Z,101677.73
2018-09-11T07:28:15.424Z,101683.49
2018-09-11T07:30:43.095Z,101678.28
2018-09-11T07:33:11.036Z,101672.58
2018-09-11T07:35:38.770Z,101670.73
2018-09-11T07:38:06.399Z,101664.92
2018-09-11T07:40:34.040Z,101663.55
2018-09-11T07:43:02.186Z,101667.45
2018-09-11T07:45:29.876Z,101661.28
2018-09-11T07:47:57.558Z,101639.24
2018-09-11T07:50:25.325Z,101629.97
2018-09-11T07:52:53.150Z,101638.63
2018-09-11T07:55:21.574Z,101630.17
2018-09-11T07:57:49.216Z,101636.70
2018-09-11T08:00:17.172Z,101633.13
2018-09-11T08:02:45.109Z,101637.06
2018-09-11T08:05:12.910Z,101640.91
2018-09-11T08:07:40.718Z,101644.38
2018-09-11T08:10:08.357Z,101643.87
2018-09-11T08:12:36.036Z,101652.75
2018-09-11T08:15:03.780Z,101654.19
2018-09-11T08:17:31.683Z,101648.09
2018-09-11T08:19:59.397Z,101656.02
2018-09-11T08:22:27.418Z,101656.47
2018-09-11T08:24:55.104Z,101649.73
2018-09-11T08:27:22.804Z,101666.77
2018-09-11T08:29:50.784Z,101659.25
2018-09-11T08:32:18.453Z,101668.53
2018-09-11T08:34:46.133Z,101665.48
2018-09-11T08:37:13.889Z,101661.91
2018-09-11T08:39:42.230Z,101672.83
2018-09-11T08:42:09.898Z,101678.86
2018-09-11T08:44:38.281Z,101657.75
2018-09-11T08:47:05.935Z,101656.81
2018-09-11T08:49:34.066Z,101667.33
2018-09-11T08:52:02.027Z,101668.15
2018-09-11T08:54:30.190Z,101684.34
2018-09-11T08:56:58.184Z,101681.62
2018-09-11T08:59:25.856Z,101669.72
2018-09-11T09:01:53.760Z,101679.73
2018-09-11T09:04:21.474Z,101685.33
2018-09-11T09:06:49.078Z,101694.43
2018-09-11T09:09:16.706Z,101686.86
2018-09-11T09:11:44.429Z,101703.95
2018-09-11T09:14:12.377Z,101690.60
2018-09-11T09:16:40.415Z,101693.48
2018-09-11T09:19:08.076Z,101703.44
2018-09-11T09:21:35.738Z,101719.89
2018-09-11T09:24:03.876Z,101706.12
2018-09-11T09:26:31.541Z,101698.28
2018-09-11T09:28:59.242Z,101673.34
2018-09-11T09:31:26.915Z,101687.92
2018-09-11T09:33:54.555Z,101663.67
2018-09-11T09:36:22.435Z,101695.97
2018-09-11T09:38:50.452Z,101684.77
2018-09-11T09:41:18.431Z,101723.66
2018-09-11T09:43:46.160Z,101686.90
2018-09-11T09:46:14.041Z,101689.69
2018-09-11T09:48:42.073Z,101694.08
2018-09-11T09:51:10.648Z,101690.50
2018-09-11T09:53:38.308Z,101690.70
2018-09-11T09:56:06.049Z,101674.21
2018-09-11T09:58:33.984Z,101669.95
2018-09-11T10:01:07.215Z,101667.72
2018-09-11T10:03:34.844Z,101693.69
2018-09-11T10:06:02.899Z,101685.67
2018-09-11T10:08:30.544Z,101696.94
2018-09-11T10:10:58.177Z,101703.94
2018-09-11T10:13:25.853Z,101711.55
2018-09-11T10:15:53.550Z,101718.30
2018-09-11T10:18:21.212Z,101691.20
2018-09-11T10:20:49.008Z,101683.38
2018-09-11T10:23:16.760Z,101690.06
2018-09-11T10:25:44.465Z,101689.69
2018-09-11T10:28:12.374Z,101714.30
2018-09-11T10:30:41.618Z,101695.72
2018-09-11T10:33:09.727Z,101680.30
2018-09-11T10:35:37.366Z,101670.58
2018-09-11T10:38:05.734Z,101677.55
2018-09-11T10:40:38.814Z,101674.02
2018-09-11T10:43:06.634Z,101666.52
2018-09-11T10:45:35.340Z,101677.01
2018-09-11T10:48:03.609Z,101681.88
2018-09-11T10:50:32.732Z,101687.62
2018-09-11T10:53:00.713Z,101682.44
2018-09-11T10:55:28.572Z,101692.98
2018-09-11T10:57:56.263Z,101681.53
2018-09-11T11:00:24.294Z,101674.88
2018-09-11T11:02:52.002Z,101680.18
2018-09-11T11:05:19.790Z,101682.47
2018-09-11T11:07:47.515Z,101693.11
2018-09-11T11:10:15.253Z,101696.28
2018-09-11T11:12:43.336Z,101709.47
2018-09-11T11:15:11.102Z,101695.84
2018-09-11T11:17:39.041Z,101706.86
2018-09-11T11:20:06.928Z,101697.66
2018-09-11T11:22:35.713Z,101701.17
2018-09-11T11:25:03.450Z,101692.36
2018-09-11T11:27:31.213Z,101690.98
2018-09-11T11:29:58.879Z,101694.37
2018-09-11T11:32:26.849Z,101692.96
2018-09-11T11:34:54.606Z,101678.73
2018-09-11T11:37:23.045Z,101676.31
2018-09-11T11:39:50.657Z,101670.06
2018-09-11T11:42:18.376Z,101674.45
2018-09-11T11:44:46.377Z,101681.96
2018-09-11T11:47:14.380Z,101685.04
2018-09-11T11:49:42.176Z,101677.16
2018-09-11T11:52:10.185Z,101680.27
2018-09-11T11:54:38.112Z,101667.95
2018-09-11T11:57:05.814Z,101675.44
2018-09-11T11:59:33.450Z,101667.48
2018-09-11T12:02:01.457Z,101699.55
2018-09-11T12:04:29.087Z,101696.88
2018-09-11T12:06:56.755Z,101687.11
2018-09-11T12:09:24.731Z,101691.98
2018-09-11T12:11:52.806Z,101699.52
2018-09-11T12:14:20.689Z,101696.53
2018-09-11T12:16:48.697Z,101693.11
2018-09-11T12:19:16.336Z,101685.10
2018-09-11T12:21:43.963Z,101689.53
2018-09-11T12:24:11.616Z,101685.98
2018-09-11T12:26:39.309Z,101681.59
2018-09-11T12:29:07.266Z,101695.18
2018-09-11T12:31:35.611Z,101694.71
2018-09-11T12:34:03.266Z,101695.16
2018-09-11T12:36:30.878Z,101685.45
2018-09-11T12:38:59.171Z,101678.34
2018-09-11T12:41:26.905Z,101687.52
2018-09-11T12:43:55.206Z,101673.88
2018-09-11T12:46:23.374Z,101680.41
2018-09-11T12:48:51.842Z,101680.41
2018-09-11T12:51:20.954Z,101678.69
2018-09-11T12:53:49.463Z,101672.53
2018-09-11T12:56:17.358Z,101680.41
2018-09-11T12:58:45.247Z,101693.20
2018-09-11T13:01:13.155Z,101684.00
2018-09-11T13:03:41.170Z,101692.32
2018-09-11T13:06:09.497Z,101694.98
2018-09-11T13:08:37.378Z,101691.54
2018-09-11T13:11:05.792Z,101680.98
2018-09-11T13:13:33.420Z,101677.84
2018-09-11T13:16:01.357Z,101685.72
2018-09-11T13:18:29.052Z,101678.72
2018-09-11T13:20:57.025Z,101680.07
2018-09-11T13:23:25.298Z,101696.34
2018-09-11T13:25:52.948Z,101697.76
2018-09-11T13:28:21.061Z,101695.59
2018-09-11T13:30:48.741Z,101703.09
2018-09-11T13:33:16.921Z,101700.90
2018-09-11T13:35:44.765Z,101693.02
2018-09-11T13:38:12.779Z,101698.30
2018-09-11T13:40:43.682Z,101702.69
2018-09-11T13:43:11.547Z,101711.05
2018-09-11T13:45:39.212Z,101693.08
2018-09-11T13:48:06.964Z,101697.41
2018-09-11T13:50:35.428Z,101700.08
2018-09-11T13:53:03.130Z,101699.20
2018-09-11T13:55:31.130Z,101699.61
2018-09-11T13:57:58.821Z,101709.69
2018-09-11T14:00:26.859Z,101704.83
2018-09-11T14:02:54.594Z,101719.33
2018-09-11T14:05:22.275Z,101724.61
2018-09-11T14:07:49.920Z,101728.56
2018-09-11T14:10:17.613Z,101723.73
2018-09-11T14:12:45.343Z,101735.19
2018-09-11T14:15:13.218Z,101731.70
2018-09-11T14:17:40.899Z,101727.69
2018-09-11T14:20:08.561Z,101723.22
2018-09-11T14:22:36.194Z,101721.44
2018-09-11T14:25:04.134Z,101725.92
2018-09-11T14:27:31.763Z,101731.14
2018-09-11T14:29:59.892Z,101737.73
2018-09-11T14:32:27.847Z,101736.01
2018-09-11T14:34:55.793Z,101743.48
2018-09-11T14:37:23.714Z,101748.37
2018-09-11T14:39:51.381Z,101746.12
2018-09-11T14:42:19.307Z,101749.23
2018-09-11T14:44:47.218Z,101743.92
2018-09-11T14:47:15.108Z,101753.16
2018-09-11T14:49:42.817Z,101754.47
2018-09-11T14:52:10.695Z,101749.61
2018-09-11T14:54:38.594Z,101750.08
2018-09-11T14:57:06.799Z,101754.53
2018-09-11T14:59:34.672Z,101756.80
2018-09-11T15:02:02.356Z,101760.78
2018-09-11T15:04:30.243Z,101759.05
2018-09-11T15:06:58.332Z,101752.46
2018-09-11T15:09:26.010Z,101749.83
2018-09-11T15:11:53.653Z,101750.26
2018-09-11T15:14:21.409Z,101757.77
2018-09-11T15:16:49.751Z,101753.40
2018-09-11T15:19:17.425Z,101761.78
2018-09-11T15:21:45.392Z,101754.75
2018-09-11T15:24:13.509Z,101754.28
2018-09-11T15:26:41.484Z,101755.19
2018-09-11T15:29:09.620Z,101756.13
2018-09-11T15:31:37.705Z,101760.52
2018-09-11T15:34:05.324Z,101758.80
2018-09-11T15:36:33.285Z,101753.48
2018-09-11T15:39:01.926Z,101745.55
2018-09-11T15:41:29.570Z,101749.53
2018-09-11T15:43:57.511Z,101746.95
2018-09-11T15:46:25.225Z,101758.82
2018-09-11T15:48:52.860Z,101756.25
2018-09-11T15:51:21.736Z,101754.93
2018-09-11T15:53:49.621Z,101756.19
2018-09-11T15:56:17.503Z,101754.46
2018-09-11T15:58:45.160Z,101765.04
2018-09-11T16:01:14.567Z,101756.28
2018-09-11T16:03:43.496Z,101754.08
2018-09-11T16:06:11.697Z,101757.22
2018-09-11T16:08:39.854Z,101759.00
2018-09-11T16:11:07.797Z,101768.26
2018-09-11T16:13:35.727Z,101763.45
2018-09-11T16:16:03.732Z,101760.82
2018-09-11T16:18:31.673Z,101761.67
2018-09-11T16:20:59.295Z,101766.06
2018-09-11T16:23:27.009Z,101765.16
2018-09-11T16:25:55.969Z,101757.59
2018-09-11T16:28:24.029Z,101765.00
2018-09-11T16:30:51.723Z,101762.78
2018-09-11T16:33:19.811Z,101756.19
2018-09-11T16:35:47.461Z,101752.67
2018-09-11T16:38:15.118Z,101751.36
2018-09-11T16:40:43.629Z,101751.36
2018-09-11T16:43:11.289Z,101749.97
2018-09-11T16:45:38.956Z,101740.74
2018-09-11T16:48:07.011Z,101740.30
2018-09-11T16:50:34.722Z,101745.14
2018-09-11T16:53:02.373Z,101740.80
2018-09-11T16:55:30.796Z,101741.66
2018-09-11T16:57:58.474Z,101749.56
2018-09-11T17:00:26.181Z,101743.44
2018-09-11T17:02:54.070Z,101754.84
2018-09-11T17:05:21.813Z,101757.50
2018-09-11T17:07:49.570Z,101748.72
2018-09-11T17:10:17.384Z,101750.50
2018-09-11T17:12:45.634Z,101744.82
2018-09-11T17:15:13.589Z,101752.30
2018-09-11T17:17:41.484Z,101750.09
2018-09-11T17:20:09.142Z,101751.41
2018-09-11T17:22:36.909Z,101742.19
2018-09-11T17:25:04.578Z,101750.09
2018-09-11T17:27:32.232Z,101751.41
2018-09-11T17:30:00.037Z,101739.95
2018-09-11T17:32:27.678Z,101750.47
2018-09-11T17:34:55.641Z,101751.38
2018-09-11T17:37:23.323Z,101751.77
2018-09-11T17:39:51.347Z,101754.40
2018-09-11T17:42:19.992Z,101757.03
2018-09-11T17:44:47.887Z,101757.95
2018-09-11T17:47:16.287Z,101763.16
2018-09-11T17:49:43.941Z,101758.36
2018-09-11T17:52:11.609Z,101764.48
2018-09-11T17:54:39.302Z,101764.48
2018-09-11T17:57:06.953Z,101766.67
2018-09-11T17:59:34.829Z,101760.48
2018-09-11T18:02:02.506Z,101758.33
2018-09-11T18:04:30.525Z,101755.22
2018-09-11T18:06:58.434Z,101756.09
2018-09-11T18:09:26.317Z,101752.14
2018-09-11T18:11:54.526Z,101752.17
2018-09-11T18:14:22.466Z,101753.90
2018-09-11T18:16:50.238Z,101749.97
2018-09-11T18:19:18.005Z,101749.97
2018-09-11T18:21:45.921Z,101747.30
2018-09-11T18:24:13.674Z,101745.58
2018-09-11T18:26:41.383Z,101751.27
2018-09-11T18:29:09.046Z,101750.85
2018-09-11T18:31:36.749Z,101753.08
2018-09-11T18:34:04.673Z,101756.13
2018-09-11T18:36:32.370Z,101765.77
2018-09-11T18:39:00.077Z,101757.86
2018-09-11T18:41:27.964Z,101760.48
2018-09-11T18:43:56.016Z,101759.64
2018-09-11T18:46:23.677Z,101760.96
2018-09-11T18:48:51.344Z,101759.61
2018-09-11T18:51:19.234Z,101770.16
2018-09-11T18:53:47.382Z,101767.09
2018-09-11T18:56:15.030Z,101775.44
2018-09-11T18:58:42.971Z,101770.16
2018-09-11T19:01:10.791Z,101779.40
2018-09-11T19:03:38.554Z,101778.52
2018-09-11T19:06:06.396Z,101772.33
2018-09-11T19:08:34.189Z,101778.92
2018-09-11T19:11:01.961Z,101787.72
2018-09-11T19:13:29.898Z,101778.08
2018-09-11T19:15:57.742Z,101782.44
2018-09-11T19:18:25.813Z,101792.08
2018-09-11T19:20:54.108Z,101791.67
2018-09-11T19:23:22.397Z,101795.54
2018-09-11T19:25:50.324Z,101795.89
2018-09-11T19:28:17.988Z,101801.55
2018-09-11T19:30:45.624Z,101797.09
2018-09-11T19:33:14.013Z,101794.05
2018-09-11T19:35:41.667Z,101793.60
2018-09-11T19:38:09.735Z,101791.84
2018-09-11T19:40:37.418Z,101790.55
2018-09-11T19:43:05.509Z,101787.03
2018-09-11T19:45:33.470Z,101800.29
2018-09-11T19:48:01.687Z,101797.20
2018-09-11T19:50:29.711Z,101791.93
2018-09-11T19:52:57.350Z,101796.33
2018-09-11T19:55:25.112Z,101795.02
2018-09-11T19:57:52.888Z,101796.77
2018-09-11T20:00:20.517Z,101808.64
2018-09-11T20:02:48.404Z,101813.91
2018-09-11T20:05:16.311Z,101817.44
2018-09-11T20:07:44.272Z,101813.03
2018-09-11T20:10:11.961Z,101813.03
2018-09-11T20:12:39.758Z,101817.91
2018-09-11T20:15:07.560Z,101824.49
2018-09-11T20:17:35.672Z,101820.54
2018-09-11T20:20:03.520Z,101823.64
2018-09-11T20:22:31.877Z,101827.13
2018-09-11T20:24:59.613Z,101822.77
2018-09-11T20:27:27.401Z,101819.69
2018-09-11T20:29:55.471Z,101817.91
2018-09-11T20:32:23.586Z,101811.30
2018-09-11T20:34:51.627Z,101813.91
2018-09-11T20:37:19.676Z,101825.38
2018-09-11T20:39:47.745Z,101819.72
2018-09-11T20:42:15.669Z,101817.55
2018-09-11T20:44:43.434Z,101822.44
2018-09-11T20:47:11.218Z,101824.23
2018-09-11T20:49:38.993Z,101826.42
2018-09-11T20:52:08.070Z,101818.52
2018-09-11T20:54:36.339Z,101815.47
2018-09-11T20:57:04.361Z,101822.47
2018-09-11T20:59:32.210Z,101814.15
2018-09-11T21:02:00.298Z,101811.95
2018-09-11T21:04:28.078Z,101817.22
2018-09-11T21:06:55.857Z,101815.91
2018-09-11T21:09:23.991Z,101825.61
2018-09-11T21:11:51.888Z,101820.33
2018-09-11T21:14:20.264Z,101819.92
2018-09-11T21:16:48.284Z,101820.33
2018-09-11T21:19:16.035Z,101823.41
2018-09-11T21:21:43.821Z,101808.93
2018-09-11T21:24:11.610Z,101811.56
2018-09-11T21:26:39.320Z,101816.44
2018-09-11T21:29:06.951Z,101817.34
2018-09-11T21:31:34.846Z,101801.93
2018-09-11T21:34:03.797Z,101808.93
2018-09-11T21:36:32.250Z,101814.65
2018-09-11T21:39:00.449Z,101814.65
2018-09-11T21:41:28.117Z,101815.09
2018-09-11T21:43:55.776Z,101824.34
2018-09-11T21:46:23.593Z,101828.27
2018-09-11T21:48:51.190Z,101817.31
2018-09-11T21:51:19.100Z,101826.13
2018-09-11T21:53:46.898Z,101830.53
2018-09-11T21:56:15.104Z,101828.33
2018-09-11T21:58:42.774Z,101816.05
2018-09-11T22:01:15.938Z,101820.00
2018-09-11T22:03:43.965Z,101816.05
2018-09-11T22:06:11.584Z,101814.32
2018-09-11T22:08:39.211Z,101818.72
2018-09-11T22:11:07.397Z,101820.94
2018-09-11T22:13:35.033Z,101820.94
2018-09-11T22:16:02.680Z,101825.34
2018-09-11T22:18:30.352Z,101819.22
2018-09-11T22:20:58.275Z,101821.44
2018-09-11T22:23:25.991Z,101823.63
2018-09-11T22:25:54.783Z,101821.00
2018-09-11T22:28:22.606Z,101818.83
2018-09-11T22:30:50.592Z,101817.95
2018-09-11T22:33:19.041Z,101816.22
2018-09-11T22:35:47.123Z,101816.20
2018-09-11T22:38:14.770Z,101821.50
2018-09-11T22:40:42.466Z,101821.94
2018-09-11T22:43:10.379Z,101823.72
2018-09-11T22:45:38.486Z,101822.43
2018-09-11T22:48:06.537Z,101830.78
2018-09-11T22:50:34.553Z,101833.41
2018-09-11T22:53:02.435Z,101830.83
2018-09-11T22:55:30.350Z,101827.32
2018-09-11T22:57:58.120Z,101823.80
2018-09-11T23:00:25.749Z,101825.12
2018-09-11T23:02:53.394Z,101826.87
2018-09-11T23:05:21.145Z,101831.30
2018-09-11T23:07:48.842Z,101825.14
2018-09-11T23:10:16.789Z,101820.34
2018-09-11T23:12:44.416Z,101819.87
2018-09-11T23:15:12.058Z,101821.19
2018-09-11T23:17:40.197Z,101815.52
2018-09-11T23:20:08.681Z,101811.55
2018-09-11T23:22:36.356Z,101811.99
2018-09-11T23:25:04.123Z,101798.78
2018-09-11T23:27:31.776Z,101799.25
2018-09-11T23:29:59.807Z,101795.73
2018-09-11T23:32:27.472Z,101794.45
2018-09-11T23:34:55.145Z,101789.61
2018-09-11T23:37:23.065Z,101790.92
2018-09-11T23:39:50.709Z,101794.01
2018-09-11T23:42:18.693Z,101794.88
2018-09-11T23:44:46.353Z,101795.77
2018-09-11T23:47:14.425Z,101790.52
2018-09-11T23:49:42.106Z,101795.38
2018-09-11T23:52:10.045Z,101804.61
2018-09-11T23:54:37.704Z,101800.22
2018-09-11T23:57:05.705Z,101804.61
2018-09-11T23:59:33.876Z,101806.36
